UAE93LE KSFO-KLAX
Flight info
| Callsign | UAE93LE |
|---|---|
| Flight time | 0h 54m |
| Altitude | 39000 |
| Route | WESLA5 SUSEY EBAYE BURGL IRNMN2 |
| Aircraft | B77W/H-SDE1E2E3FGHIJ2J3J4J5M1RWXY/LB1D1 |
Departure
| Time | 2026-05-05 16:17 |
|---|---|
| Airport | San Francisco International Airport (KSFO) |
Arrival
| Time | 2026-05-05 17:11 |
|---|---|
| Airport | Los Angeles International Airport (KLAX) |
| Time | Latitude | Longitude | Altitude | Speed | Heading |
|---|---|---|---|---|---|
| 2026-05-05 15:46 | 37.61249 | -122.38592 | 27 ft | 0 kts | 118° |
| 2026-05-05 16:01 | 37.61255 | -122.38607 | 27 ft | 2 kts | 118° |
| 2026-05-05 16:01 | 37.61265 | -122.38630 | 27 ft | 3 kts | 116° |
| 2026-05-05 16:02 | 37.61274 | -122.38652 | 27 ft | 3 kts | 123° |
| 2026-05-05 16:02 | 37.61286 | -122.38673 | 27 ft | 3 kts | 131° |
| 2026-05-05 16:02 | 37.61300 | -122.38691 | 27 ft | 3 kts | 143° |
| 2026-05-05 16:02 | 37.61317 | -122.38704 | 27 ft | 3 kts | 165° |
| 2026-05-05 16:03 | 37.61333 | -122.38706 | 27 ft | 1 kts | 202° |
| 2026-05-05 16:03 | 37.61336 | -122.38704 | 27 ft | 0 kts | 207° |
| 2026-05-05 16:06 | 37.61330 | -122.38708 | 27 ft | 3 kts | 207° |
| 2026-05-05 16:06 | 37.61283 | -122.38740 | 27 ft | 11 kts | 207° |
| 2026-05-05 16:07 | 37.61222 | -122.38780 | 27 ft | 9 kts | 208° |
| 2026-05-05 16:07 | 37.61163 | -122.38819 | 27 ft | 10 kts | 208° |
| 2026-05-05 16:07 | 37.61100 | -122.38861 | 27 ft | 10 kts | 208° |
| 2026-05-05 16:07 | 37.61034 | -122.38905 | 27 ft | 11 kts | 207° |
| 2026-05-05 16:08 | 37.60961 | -122.38911 | 27 ft | 11 kts | 148° |
| 2026-05-05 16:08 | 37.60912 | -122.38830 | 27 ft | 12 kts | 120° |
| 2026-05-05 16:08 | 37.60871 | -122.38738 | 27 ft | 12 kts | 116° |
| 2026-05-05 16:08 | 37.60830 | -122.38641 | 27 ft | 13 kts | 119° |
| 2026-05-05 16:09 | 37.60790 | -122.38542 | 27 ft | 13 kts | 116° |
| 2026-05-05 16:09 | 37.60792 | -122.38458 | 27 ft | 9 kts | 42° |
| 2026-05-05 16:09 | 37.60848 | -122.38413 | 27 ft | 10 kts | 30° |
| 2026-05-05 16:09 | 37.60908 | -122.38372 | 27 ft | 10 kts | 28° |
| 2026-05-05 16:10 | 37.60979 | -122.38324 | 27 ft | 15 kts | 27° |
| 2026-05-05 16:10 | 37.61105 | -122.38241 | 27 ft | 25 kts | 27° |
| 2026-05-05 16:10 | 37.61275 | -122.38129 | 27 ft | 27 kts | 27° |
| 2026-05-05 16:10 | 37.61440 | -122.38020 | 27 ft | 26 kts | 27° |
| 2026-05-05 16:11 | 37.61596 | -122.37917 | 27 ft | 21 kts | 27° |
| 2026-05-05 16:11 | 37.61648 | -122.37881 | 27 ft | 5 kts | 34° |
| 2026-05-05 16:12 | 37.61668 | -122.37833 | 27 ft | 8 kts | 85° |
| 2026-05-05 16:12 | 37.61652 | -122.37645 | 27 ft | 14 kts | 97° |
| 2026-05-05 16:13 | 37.61641 | -122.37527 | 27 ft | 16 kts | 96° |
| 2026-05-05 16:13 | 37.61625 | -122.37379 | 27 ft | 18 kts | 98° |
| 2026-05-05 16:13 | 37.61598 | -122.37227 | 27 ft | 18 kts | 115° |
| 2026-05-05 16:14 | 37.61465 | -122.36920 | 27 ft | 22 kts | 130° |
| 2026-05-05 16:14 | 37.61287 | -122.36593 | 27 ft | 23 kts | 117° |
| 2026-05-05 16:15 | 37.61138 | -122.36236 | 27 ft | 23 kts | 117° |
| 2026-05-05 16:15 | 37.61141 | -122.36083 | 27 ft | 9 kts | 32° |
| 2026-05-05 16:16 | 37.61260 | -122.36050 | 27 ft | 8 kts | 303° |
| 2026-05-05 16:16 | 37.61460 | -122.36524 | 27 ft | 107 kts | 297° |
| 2026-05-05 16:17 | 37.62636 | -122.39013 | 1082 ft | 184 kts | 312° |
| 2026-05-05 16:17 | 37.63610 | -122.40068 | 2147 ft | 183 kts | 321° |
| 2026-05-05 16:18 | 37.66141 | -122.41465 | 3074 ft | 232 kts | 359° |
| 2026-05-05 16:18 | 37.67705 | -122.41036 | 4012 ft | 227 kts | 28° |
| 2026-05-05 16:18 | 37.69362 | -122.37478 | 5077 ft | 269 kts | 92° |
| 2026-05-05 16:19 | 37.68884 | -122.35182 | 5901 ft | 277 kts | 122° |
| 2026-05-05 16:19 | 37.67598 | -122.33374 | 6779 ft | 280 kts | 140° |
| 2026-05-05 16:19 | 37.64457 | -122.30351 | 8619 ft | 288 kts | 144° |
| 2026-05-05 16:20 | 37.61180 | -122.27290 | 10313 ft | 300 kts | 143° |
| 2026-05-05 16:20 | 37.57603 | -122.23811 | 10886 ft | 352 kts | 142° |
| 2026-05-05 16:21 | 37.53589 | -122.19741 | 11994 ft | 382 kts | 141° |
| 2026-05-05 16:22 | 37.47314 | -122.13225 | 14519 ft | 398 kts | 141° |
| 2026-05-05 16:22 | 37.42992 | -122.08709 | 15995 ft | 408 kts | 141° |
| 2026-05-05 16:23 | 37.38572 | -122.04094 | 17293 ft | 418 kts | 141° |
| 2026-05-05 16:23 | 37.36324 | -122.01751 | 17882 ft | 422 kts | 141° |
| 2026-05-05 16:23 | 37.31748 | -121.96985 | 18969 ft | 431 kts | 141° |
| 2026-05-05 16:24 | 37.29428 | -121.94573 | 19467 ft | 435 kts | 141° |
| 2026-05-05 16:24 | 37.27088 | -121.92141 | 19936 ft | 439 kts | 141° |
| 2026-05-05 16:24 | 37.22347 | -121.87222 | 20799 ft | 446 kts | 141° |
| 2026-05-05 16:25 | 37.19949 | -121.84737 | 21210 ft | 449 kts | 141° |
| 2026-05-05 16:25 | 37.15092 | -121.79710 | 21977 ft | 456 kts | 141° |
| 2026-05-05 16:25 | 37.12669 | -121.77205 | 22310 ft | 459 kts | 141° |
| 2026-05-05 16:26 | 37.07712 | -121.72088 | 23067 ft | 464 kts | 141° |
| 2026-05-05 16:26 | 37.02698 | -121.66921 | 23696 ft | 470 kts | 141° |
| 2026-05-05 16:27 | 37.00164 | -121.64314 | 23981 ft | 473 kts | 141° |
| 2026-05-05 16:27 | 36.97615 | -121.61693 | 24278 ft | 475 kts | 141° |
| 2026-05-05 16:27 | 36.95055 | -121.59063 | 24574 ft | 478 kts | 141° |
| 2026-05-05 16:27 | 36.92473 | -121.56412 | 24721 ft | 483 kts | 141° |
| 2026-05-05 16:28 | 36.89869 | -121.53742 | 25002 ft | 484 kts | 141° |
| 2026-05-05 16:28 | 36.87267 | -121.51077 | 25336 ft | 485 kts | 141° |
| 2026-05-05 16:28 | 36.84657 | -121.48404 | 25626 ft | 486 kts | 141° |
| 2026-05-05 16:28 | 36.82039 | -121.45728 | 25861 ft | 488 kts | 141° |
| 2026-05-05 16:29 | 36.79403 | -121.43034 | 26069 ft | 491 kts | 141° |
| 2026-05-05 16:29 | 36.76753 | -121.40330 | 26275 ft | 493 kts | 141° |
| 2026-05-05 16:29 | 36.74090 | -121.37614 | 26385 ft | 497 kts | 141° |
| 2026-05-05 16:29 | 36.71413 | -121.34886 | 26591 ft | 499 kts | 141° |
| 2026-05-05 16:30 | 36.68720 | -121.32145 | 26870 ft | 498 kts | 141° |
| 2026-05-05 16:30 | 36.66032 | -121.29410 | 27109 ft | 499 kts | 141° |
| 2026-05-05 16:30 | 36.63335 | -121.26670 | 27292 ft | 501 kts | 141° |
| 2026-05-05 16:30 | 36.60662 | -121.23956 | 27442 ft | 503 kts | 141° |
| 2026-05-05 16:31 | 36.57939 | -121.21195 | 27519 ft | 507 kts | 141° |
| 2026-05-05 16:31 | 36.55202 | -121.18421 | 27629 ft | 509 kts | 141° |
| 2026-05-05 16:31 | 36.52442 | -121.15626 | 27726 ft | 512 kts | 141° |
| 2026-05-05 16:31 | 36.49682 | -121.12834 | 27992 ft | 511 kts | 141° |
| 2026-05-05 16:32 | 36.46926 | -121.10048 | 28130 ft | 512 kts | 141° |
| 2026-05-05 16:32 | 36.44180 | -121.07218 | 28320 ft | 512 kts | 139° |
| 2026-05-05 16:32 | 36.41612 | -121.04156 | 28488 ft | 513 kts | 133° |
| 2026-05-05 16:32 | 36.40509 | -121.02620 | 28554 ft | 514 kts | 131° |
| 2026-05-05 16:33 | 36.38852 | -121.00212 | 28681 ft | 514 kts | 130° |
| 2026-05-05 16:33 | 36.38702 | -120.99992 | 28695 ft | 514 kts | 130° |
| 2026-05-05 16:33 | 36.35233 | -120.94909 | 28880 ft | 516 kts | 130° |
| 2026-05-05 16:34 | 36.30551 | -120.88105 | 29002 ft | 521 kts | 131° |
| 2026-05-05 16:34 | 36.28212 | -120.84739 | 29145 ft | 521 kts | 131° |
| 2026-05-05 16:34 | 36.25840 | -120.81341 | 29294 ft | 521 kts | 131° |
| 2026-05-05 16:35 | 36.23467 | -120.77951 | 29416 ft | 522 kts | 131° |
| 2026-05-05 16:35 | 36.21081 | -120.74547 | 29507 ft | 523 kts | 131° |
| 2026-05-05 16:35 | 36.16307 | -120.67744 | 29777 ft | 523 kts | 131° |
| 2026-05-05 16:36 | 36.13923 | -120.64349 | 30067 ft | 519 kts | 131° |
| 2026-05-05 16:36 | 36.11566 | -120.60995 | 30433 ft | 515 kts | 131° |
| 2026-05-05 16:36 | 36.09223 | -120.57666 | 30792 ft | 511 kts | 131° |
| 2026-05-05 16:36 | 36.06893 | -120.54357 | 31156 ft | 507 kts | 131° |
| 2026-05-05 16:37 | 36.04586 | -120.51083 | 31517 ft | 504 kts | 131° |
| 2026-05-05 16:37 | 36.02293 | -120.47833 | 31879 ft | 501 kts | 131° |
| 2026-05-05 16:37 | 36.00006 | -120.44595 | 32242 ft | 497 kts | 131° |
| 2026-05-05 16:37 | 35.97747 | -120.41401 | 32604 ft | 494 kts | 131° |
| 2026-05-05 16:38 | 35.95488 | -120.38207 | 32971 ft | 491 kts | 131° |
| 2026-05-05 16:38 | 35.93249 | -120.35044 | 33332 ft | 488 kts | 131° |
| 2026-05-05 16:38 | 35.91024 | -120.31905 | 33690 ft | 485 kts | 131° |
| 2026-05-05 16:38 | 35.88769 | -120.28833 | 34048 ft | 482 kts | 135° |
| 2026-05-05 16:39 | 35.83586 | -120.23475 | 34014 ft | 492 kts | 146° |
| 2026-05-05 16:39 | 35.77685 | -120.19043 | 34012 ft | 501 kts | 149° |
| 2026-05-05 16:40 | 35.71659 | -120.14591 | 34012 ft | 509 kts | 149° |
| 2026-05-05 16:40 | 35.65608 | -120.09959 | 34008 ft | 515 kts | 146° |
| 2026-05-05 16:41 | 35.59730 | -120.04835 | 34004 ft | 521 kts | 144° |
| 2026-05-05 16:41 | 35.53945 | -119.99707 | 34004 ft | 525 kts | 144° |
| 2026-05-05 16:42 | 35.47995 | -119.94466 | 33999 ft | 525 kts | 144° |
| 2026-05-05 16:42 | 35.42103 | -119.89314 | 33999 ft | 524 kts | 144° |
| 2026-05-05 16:43 | 35.36149 | -119.84127 | 34001 ft | 524 kts | 145° |
| 2026-05-05 16:43 | 35.30201 | -119.78953 | 33992 ft | 525 kts | 145° |
| 2026-05-05 16:44 | 35.27212 | -119.76356 | 33632 ft | 527 kts | 145° |
| 2026-05-05 16:44 | 35.24238 | -119.73773 | 33119 ft | 523 kts | 145° |
| 2026-05-05 16:44 | 35.21289 | -119.71214 | 32615 ft | 515 kts | 145° |
| 2026-05-05 16:44 | 35.18401 | -119.68711 | 32112 ft | 506 kts | 145° |
| 2026-05-05 16:45 | 35.15540 | -119.66233 | 31606 ft | 499 kts | 145° |
| 2026-05-05 16:45 | 35.12718 | -119.63792 | 31102 ft | 493 kts | 145° |
| 2026-05-05 16:45 | 35.09944 | -119.61393 | 30601 ft | 487 kts | 145° |
| 2026-05-05 16:45 | 35.07188 | -119.59013 | 30102 ft | 482 kts | 145° |
| 2026-05-05 16:46 | 35.05377 | -119.57450 | 29793 ft | 481 kts | 145° |
| 2026-05-05 16:46 | 35.02661 | -119.55108 | 29508 ft | 475 kts | 145° |
| 2026-05-05 16:46 | 34.99980 | -119.52797 | 29152 ft | 470 kts | 145° |
| 2026-05-05 16:46 | 34.97325 | -119.50511 | 28587 ft | 466 kts | 145° |
| 2026-05-05 16:47 | 34.94693 | -119.48246 | 28041 ft | 460 kts | 145° |
| 2026-05-05 16:47 | 34.92093 | -119.46011 | 27496 ft | 455 kts | 145° |
| 2026-05-05 16:47 | 34.89525 | -119.43805 | 26960 ft | 450 kts | 145° |
| 2026-05-05 16:47 | 34.86979 | -119.41619 | 26425 ft | 445 kts | 145° |
| 2026-05-05 16:48 | 34.84464 | -119.39462 | 25948 ft | 439 kts | 145° |
| 2026-05-05 16:48 | 34.81980 | -119.37333 | 25456 ft | 434 kts | 145° |
| 2026-05-05 16:48 | 34.79536 | -119.35240 | 24950 ft | 430 kts | 145° |
| 2026-05-05 16:48 | 34.77089 | -119.33146 | 24440 ft | 426 kts | 145° |
| 2026-05-05 16:49 | 34.74679 | -119.31085 | 23936 ft | 422 kts | 145° |
| 2026-05-05 16:49 | 34.72292 | -119.29045 | 23435 ft | 418 kts | 145° |
| 2026-05-05 16:49 | 34.69921 | -119.27020 | 22939 ft | 414 kts | 145° |
| 2026-05-05 16:49 | 34.67573 | -119.25016 | 22445 ft | 411 kts | 145° |
| 2026-05-05 16:50 | 34.65238 | -119.23026 | 21955 ft | 409 kts | 145° |
| 2026-05-05 16:50 | 34.63411 | -119.21468 | 21570 ft | 407 kts | 145° |
| 2026-05-05 16:50 | 34.61570 | -119.19901 | 21181 ft | 405 kts | 145° |
| 2026-05-05 16:50 | 34.59273 | -119.17945 | 20697 ft | 402 kts | 145° |
| 2026-05-05 16:51 | 34.57027 | -119.16035 | 20214 ft | 400 kts | 145° |
| 2026-05-05 16:51 | 34.54721 | -119.14074 | 19725 ft | 397 kts | 145° |
| 2026-05-05 16:51 | 34.52497 | -119.12184 | 19248 ft | 394 kts | 145° |
| 2026-05-05 16:51 | 34.50258 | -119.10284 | 18769 ft | 391 kts | 145° |
| 2026-05-05 16:52 | 34.48039 | -119.08401 | 18281 ft | 388 kts | 145° |
| 2026-05-05 16:52 | 34.45848 | -119.06544 | 17932 ft | 382 kts | 145° |
| 2026-05-05 16:52 | 34.43664 | -119.04693 | 17354 ft | 384 kts | 145° |
| 2026-05-05 16:52 | 34.41485 | -119.02849 | 16859 ft | 381 kts | 145° |
| 2026-05-05 16:53 | 34.39316 | -119.01013 | 16375 ft | 378 kts | 145° |
| 2026-05-05 16:53 | 34.37262 | -118.99276 | 15919 ft | 375 kts | 145° |
| 2026-05-05 16:53 | 34.35131 | -118.97474 | 15448 ft | 372 kts | 145° |
| 2026-05-05 16:53 | 34.33022 | -118.95692 | 14987 ft | 368 kts | 145° |
| 2026-05-05 16:54 | 34.30931 | -118.93926 | 14528 ft | 365 kts | 145° |
| 2026-05-05 16:54 | 34.28857 | -118.92176 | 14071 ft | 362 kts | 145° |
| 2026-05-05 16:54 | 34.26801 | -118.90444 | 13619 ft | 359 kts | 145° |
| 2026-05-05 16:54 | 34.24765 | -118.88713 | 13171 ft | 356 kts | 144° |
| 2026-05-05 16:55 | 34.22802 | -118.86918 | 12726 ft | 353 kts | 142° |
| 2026-05-05 16:55 | 34.20885 | -118.85125 | 12533 ft | 343 kts | 143° |
| 2026-05-05 16:55 | 34.19024 | -118.83398 | 12379 ft | 332 kts | 143° |
| 2026-05-05 16:55 | 34.17213 | -118.81732 | 12231 ft | 322 kts | 143° |
| 2026-05-05 16:56 | 34.15480 | -118.80063 | 11925 ft | 318 kts | 139° |
| 2026-05-05 16:56 | 34.13843 | -118.78288 | 11570 ft | 316 kts | 138° |
| 2026-05-05 16:56 | 34.12236 | -118.76497 | 11214 ft | 314 kts | 137° |
| 2026-05-05 16:56 | 34.10633 | -118.74718 | 10853 ft | 312 kts | 138° |
| 2026-05-05 16:57 | 34.09029 | -118.72957 | 10488 ft | 311 kts | 138° |
| 2026-05-05 16:57 | 34.07429 | -118.71214 | 10151 ft | 308 kts | 138° |
| 2026-05-05 16:57 | 34.05865 | -118.69515 | 10028 ft | 298 kts | 139° |
| 2026-05-05 16:57 | 34.04337 | -118.67856 | 9738 ft | 294 kts | 137° |
| 2026-05-05 16:58 | 34.03118 | -118.65933 | 9388 ft | 289 kts | 114° |
| 2026-05-05 16:58 | 34.02648 | -118.63600 | 9087 ft | 287 kts | 96° |
| 2026-05-05 16:58 | 34.02450 | -118.61220 | 8762 ft | 285 kts | 96° |
| 2026-05-05 16:58 | 34.02244 | -118.58879 | 8435 ft | 284 kts | 96° |
| 2026-05-05 16:59 | 34.02025 | -118.56484 | 8101 ft | 283 kts | 97° |
| 2026-05-05 16:59 | 34.01811 | -118.54169 | 7836 ft | 280 kts | 97° |
| 2026-05-05 16:59 | 34.01596 | -118.51855 | 7594 ft | 276 kts | 97° |
| 2026-05-05 16:59 | 34.01411 | -118.49879 | 7392 ft | 273 kts | 97° |
| 2026-05-05 17:00 | 34.01198 | -118.47626 | 7159 ft | 269 kts | 97° |
| 2026-05-05 17:00 | 34.01046 | -118.45405 | 6911 ft | 261 kts | 87° |
| 2026-05-05 17:00 | 34.01327 | -118.43269 | 6716 ft | 256 kts | 77° |
| 2026-05-05 17:00 | 34.01652 | -118.41582 | 6539 ft | 252 kts | 77° |
| 2026-05-05 17:01 | 34.01982 | -118.39846 | 6360 ft | 249 kts | 78° |
| 2026-05-05 17:01 | 34.02350 | -118.37822 | 6150 ft | 245 kts | 78° |
| 2026-05-05 17:01 | 34.02701 | -118.35848 | 6046 ft | 237 kts | 78° |
| 2026-05-05 17:01 | 34.02960 | -118.33867 | 5989 ft | 242 kts | 83° |
| 2026-05-05 17:02 | 34.03154 | -118.31866 | 5975 ft | 238 kts | 84° |
| 2026-05-05 17:02 | 34.03346 | -118.29879 | 5775 ft | 242 kts | 84° |
| 2026-05-05 17:02 | 34.03557 | -118.27828 | 5364 ft | 247 kts | 83° |
| 2026-05-05 17:02 | 34.03763 | -118.25796 | 5176 ft | 242 kts | 83° |
| 2026-05-05 17:03 | 34.03960 | -118.23810 | 5007 ft | 235 kts | 83° |
| 2026-05-05 17:03 | 34.04148 | -118.21891 | 4857 ft | 226 kts | 84° |
| 2026-05-05 17:03 | 34.04328 | -118.20048 | 4735 ft | 216 kts | 84° |
| 2026-05-05 17:03 | 34.04497 | -118.18305 | 4681 ft | 203 kts | 84° |
| 2026-05-05 17:04 | 34.04658 | -118.16639 | 4560 ft | 200 kts | 84° |
| 2026-05-05 17:04 | 34.04628 | -118.14984 | 4435 ft | 198 kts | 113° |
| 2026-05-05 17:04 | 34.03714 | -118.13830 | 4362 ft | 194 kts | 159° |
| 2026-05-05 17:04 | 34.02427 | -118.13369 | 4294 ft | 195 kts | 165° |
| 2026-05-05 17:05 | 34.01107 | -118.12916 | 4178 ft | 198 kts | 169° |
| 2026-05-05 17:05 | 33.99767 | -118.13005 | 4058 ft | 193 kts | 199° |
| 2026-05-05 17:05 | 33.98586 | -118.13736 | 3999 ft | 191 kts | 209° |
| 2026-05-05 17:05 | 33.97473 | -118.14589 | 3959 ft | 190 kts | 231° |
| 2026-05-05 17:06 | 33.96881 | -118.16003 | 3935 ft | 191 kts | 265° |
| 2026-05-05 17:06 | 33.97013 | -118.17597 | 3992 ft | 195 kts | 276° |
| 2026-05-05 17:06 | 33.97075 | -118.19249 | 3980 ft | 197 kts | 269° |
| 2026-05-05 17:06 | 33.97027 | -118.20886 | 3966 ft | 194 kts | 267° |
| 2026-05-05 17:07 | 33.96968 | -118.22484 | 3963 ft | 184 kts | 265° |
| 2026-05-05 17:07 | 33.96857 | -118.23945 | 3943 ft | 166 kts | 263° |
| 2026-05-05 17:07 | 33.96733 | -118.25272 | 3896 ft | 157 kts | 264° |
| 2026-05-05 17:07 | 33.96647 | -118.26609 | 3506 ft | 163 kts | 265° |
| 2026-05-05 17:08 | 33.96573 | -118.27910 | 3165 ft | 160 kts | 264° |
| 2026-05-05 17:08 | 33.96395 | -118.29219 | 2794 ft | 157 kts | 256° |
| 2026-05-05 17:08 | 33.96168 | -118.30358 | 2453 ft | 152 kts | 257° |
| 2026-05-05 17:08 | 33.96042 | -118.31436 | 2108 ft | 146 kts | 265° |
| 2026-05-05 17:09 | 33.95964 | -118.32628 | 1676 ft | 141 kts | 264° |
| 2026-05-05 17:09 | 33.95874 | -118.33811 | 1233 ft | 139 kts | 264° |
| 2026-05-05 17:09 | 33.95763 | -118.34912 | 989 ft | 128 kts | 260° |
| 2026-05-05 17:09 | 33.95643 | -118.35940 | 745 ft | 123 kts | 261° |
| 2026-05-05 17:10 | 33.95532 | -118.37002 | 668 ft | 125 kts | 262° |
| 2026-05-05 17:10 | 33.95447 | -118.37941 | 520 ft | 126 kts | 262° |
| 2026-05-05 17:10 | 33.95327 | -118.39037 | 359 ft | 134 kts | 262° |
| 2026-05-05 17:10 | 33.95218 | -118.40154 | 179 ft | 135 kts | 263° |
| 2026-05-05 17:11 | 33.95108 | -118.41224 | 132 ft | 120 kts | 262° |
| 2026-05-05 17:11 | 33.95019 | -118.42063 | 131 ft | 98 kts | 262° |
| 2026-05-05 17:11 | 33.94979 | -118.42429 | 130 ft | 29 kts | 251° |
| 2026-05-05 17:11 | 33.94910 | -118.42592 | 130 ft | 20 kts | 238° |
| 2026-05-05 17:12 | 33.94824 | -118.42709 | 130 ft | 20 kts | 219° |
| 2026-05-05 17:12 | 33.94712 | -118.42774 | 130 ft | 18 kts | 190° |
| 2026-05-05 17:12 | 33.94636 | -118.42732 | 130 ft | 12 kts | 97° |
| 2026-05-05 17:12 | 33.94639 | -118.42638 | 130 ft | 12 kts | 84° |
| 2026-05-05 17:13 | 33.94649 | -118.42536 | 130 ft | 12 kts | 80° |
| 2026-05-05 17:13 | 33.94662 | -118.42432 | 130 ft | 13 kts | 83° |
| 2026-05-05 17:13 | 33.94676 | -118.42307 | 130 ft | 19 kts | 82° |
| 2026-05-05 17:13 | 33.94696 | -118.42112 | 130 ft | 28 kts | 83° |
| 2026-05-05 17:14 | 33.94721 | -118.41862 | 130 ft | 30 kts | 82° |
| 2026-05-05 17:14 | 33.94719 | -118.41740 | 130 ft | 10 kts | 130° |
| 2026-05-05 17:14 | 33.94649 | -118.41674 | 130 ft | 16 kts | 146° |
| 2026-05-05 17:14 | 33.94562 | -118.41686 | 130 ft | 10 kts | 204° |
| 2026-05-05 17:15 | 33.94524 | -118.41693 | 130 ft | 0 kts | 180° |
| 2026-05-05 17:15 | 33.94521 | -118.41692 | 130 ft | 1 kts | 167° |
| 2026-05-05 17:15 | 33.94514 | -118.41671 | 130 ft | 5 kts | 95° |
| 2026-05-05 17:16 | 33.94516 | -118.41622 | 130 ft | 6 kts | 86° |
| 2026-05-05 17:16 | 33.94516 | -118.41619 | 130 ft | 0 kts | 86° |